Time;durP1;ratioP1;P1;durP2;ratioP2;P2;SDS_P1;SDS_P2;PMS_P1;PMS_P2;Temp;Humidity;BMP_temperature;BMP_pressure;BME280_temperature;BME280_humidity;BME280_pressure;Samples;Min_cycle;Max_cycle;Signal;HPM_P1;HPM_P2
2021/12/07 00:01:50;;;;;;;1.33;1.20;;;6.30;99.90;6.80;100476.00;;;;5014402;28;20245;-72
2021/12/07 00:04:22;;;;;;;1.07;1.07;;;6.50;99.90;6.50;100484.00;;;;4998426;28;20188;-72
2021/12/07 00:06:53;;;;;;;1.00;1.00;;;6.50;99.90;6.40;100480.00;;;;5014831;28;20160;-72
2021/12/07 00:09:23;;;;;;;1.10;1.10;;;6.40;99.90;6.80;100485.00;;;;5014593;28;20168;-72
2021/12/07 00:11:56;;;;;;;7.97;2.27;;;6.50;99.90;6.30;100484.00;;;;4997436;28;20222;-72
2021/12/07 00:14:25;;;;;;;0.90;0.90;;;6.40;99.90;6.20;100488.00;;;;5015774;28;20263;-72
2021/12/07 00:16:55;;;;;;;1.53;1.43;;;6.30;99.90;5.80;100454.00;;;;5013819;28;20634;-73
2021/12/07 00:19:23;;;;;;;0.93;0.93;;;6.20;99.90;6.00;100506.00;;;;5014049;28;20180;-72
2021/12/07 00:21:51;;;;;;;4.47;2.93;;;6.30;99.90;6.10;100494.00;;;;5014487;28;20270;-73
2021/12/07 00:24:20;;;;;;;1.10;1.10;;;6.30;99.90;6.20;100503.00;;;;5013952;28;20238;-73
2021/12/07 00:26:46;;;;;;;4.23;3.47;;;6.30;99.90;6.50;100470.00;;;;5014372;28;20234;-73
2021/12/07 00:29:16;;;;;;;1.37;1.37;;;6.50;99.90;6.20;100490.00;;;;4997684;28;20203;-72
2021/12/07 00:31:53;;;;;;;0.90;0.90;;;6.40;99.90;5.90;100510.00;;;;5013906;28;20217;-72
2021/12/07 00:36:57;;;;;;;1.73;1.43;;;6.20;99.90;6.20;100473.00;;;;5013591;28;20233;-73
2021/12/07 00:39:25;;;;;;;1.90;1.80;;;6.30;99.90;6.10;100527.00;;;;5014030;28;20200;-73
2021/12/07 00:41:57;;;;;;;4.17;3.47;;;6.30;99.90;5.70;100527.00;;;;5015235;28;20179;-73
2021/12/07 00:44:29;;;;;;;21.17;3.10;;;6.20;99.90;5.90;100528.00;;;;5029493;28;20187;-73
2021/12/07 00:46:55;;;;;;;1.50;1.50;;;6.10;99.90;6.00;100524.00;;;;5014169;28;20258;-73
2021/12/07 00:49:24;;;;;;;1.60;1.50;;;6.20;99.90;6.00;100532.00;;;;5014011;28;20185;-74
2021/12/07 00:51:53;;;;;;;4.43;1.20;;;6.10;99.90;5.80;100501.00;;;;5013688;28;20207;-74
2021/12/07 00:54:19;;;;;;;2.30;1.47;;;6.10;99.90;5.60;100536.00;;;;4996560;28;20198;-73
2021/12/07 00:56:48;;;;;;;1.27;1.17;;;6.00;99.90;5.80;100540.00;;;;4996643;28;20183;-72
2021/12/07 00:59:19;;;;;;;1.83;1.43;;;6.00;99.90;5.70;100550.00;;;;4997165;28;20184;-73
2021/12/07 01:01:50;;;;;;;2.90;2.63;;;6.00;99.90;5.90;100558.00;;;;5014631;28;20184;-72
2021/12/07 01:04:22;;;;;;;8.50;1.67;;;6.00;99.90;5.70;100564.00;;;;5013350;28;20199;-73
2021/12/07 01:07:01;;;;;;;0.80;0.80;;;6.00;99.90;5.70;100575.00;;;;4996533;28;20192;-73
2021/12/07 01:24:39;;;;;;;1.07;1.07;;;6.00;99.90;5.90;100576.00;;;;5014307;28;20594;-73
2021/12/07 01:26:24;;;;;;;5.73;2.40;;;5.90;99.90;5.50;100592.00;;;;5012563;28;20567;-73
2021/12/07 01:28:53;;;;;;;1.10;1.10;;;5.80;99.90;5.60;100586.00;;;;5013543;28;20172;-73
2021/12/07 01:31:35;;;;;;;0.90;0.90;;;5.80;99.90;5.50;100592.00;;;;5013096;28;20263;-73
2021/12/07 02:01:43;;;;;;;4.50;2.50;;;5.70;99.90;5.40;100644.00;;;;5019950;28;20183;-72
2021/12/07 02:04:21;;;;;;;0.90;0.90;;;5.60;99.90;5.30;100651.00;;;;4995205;28;20185;-72
2021/12/07 02:06:47;;;;;;;1.67;1.57;;;5.60;99.90;5.50;100655.00;;;;5011918;28;20175;-73
2021/12/07 02:09:15;;;;;;;1.00;1.00;;;5.70;99.90;5.40;100648.00;;;;5012121;28;20177;-73
2021/12/07 02:11:50;;;;;;;0.97;0.97;;;5.70;99.90;5.60;100602.00;;;;5011916;28;20210;-73
2021/12/07 02:14:17;;;;;;;0.90;0.90;;;5.70;99.90;5.10;100641.00;;;;5009986;28;20203;-73
2021/12/07 02:16:57;;;;;;;1.00;1.00;;;5.50;99.90;5.00;100646.00;;;;5011773;28;20191;-73
2021/12/07 02:19:25;;;;;;;2.60;1.87;;;5.40;99.90;5.00;100673.00;;;;5011154;28;20209;-73
2021/12/07 02:21:55;;;;;;;3.57;1.63;;;5.40;99.90;4.80;100675.00;;;;5011569;28;20186;-73
2021/12/07 02:24:22;;;;;;;2.83;1.10;;;5.20;99.90;4.60;100640.00;;;;5012442;28;20214;-73
2021/12/07 02:26:51;;;;;;;1.57;1.47;;;5.20;99.90;4.60;100655.00;;;;4994971;28;20188;-73
2021/12/07 02:29:20;;;;;;;7.37;1.90;;;5.10;99.90;4.60;100685.00;;;;5012743;28;20234;-73
2021/12/07 02:31:53;;;;;;;5.13;2.80;;;5.10;99.90;4.70;100679.00;;;;5011921;28;20211;-75
2021/12/07 02:34:28;;;;;;;2.00;1.80;;;5.10;99.90;4.60;100682.00;;;;5012114;28;20160;-75
2021/12/07 02:36:55;;;;;;;0.80;0.80;;;5.10;99.90;4.60;100702.00;;;;4995691;28;20188;-76
2021/12/07 02:39:37;;;;;;;2.20;0.97;;;5.10;99.90;4.60;100709.00;;;;4995862;28;20274;-76
2021/12/07 02:42:04;;;;;;;2.03;1.03;;;5.10;99.90;4.70;100706.00;;;;4996176;28;20212;-76
2021/12/07 02:44:32;;;;;;;2.60;1.83;;;5.00;99.90;5.00;100705.00;;;;4995241;28;20195;-76
2021/12/07 02:47:02;;;;;;;1.27;1.27;;;5.10;99.90;5.10;100710.00;;;;5011861;28;20203;-75
2021/12/07 02:49:32;;;;;;;0.80;0.80;;;5.20;99.90;4.70;100705.00;;;;5013098;28;20266;-74
2021/12/07 02:52:00;;;;;;;0.90;0.90;;;5.10;99.90;4.80;100712.00;;;;5011775;28;20282;-74
2021/12/07 02:54:29;;;;;;;0.70;0.70;;;5.10;99.90;4.50;100717.00;;;;5011811;28;20715;-74
2021/12/07 02:56:58;;;;;;;1.30;1.30;;;5.00;99.90;5.00;100667.00;;;;4995213;28;20188;-74
2021/12/07 02:59:27;;;;;;;1.67;1.57;;;5.10;99.90;5.00;100709.00;;;;4995750;28;20245;-74
2021/12/07 03:02:02;;;;;;;0.70;0.70;;;5.20;99.90;4.60;100722.00;;;;5012647;28;20179;-74
2021/12/07 03:04:40;;;;;;;1.60;1.50;;;5.10;99.90;4.60;100720.00;;;;5011822;28;20175;-74
2021/12/07 03:07:30;;;;;;;7.63;2.33;;;5.00;99.90;4.40;100713.00;;;;5011753;28;20267;-74
2021/12/07 03:25:54;;;;;;;1.33;1.33;;;4.90;99.90;4.50;100712.00;;;;5013295;28;20172;-75
2021/12/07 03:27:01;;;;;;;3.33;2.03;;;4.60;99.90;4.00;100734.00;;;;5015553;28;20204;-75
2021/12/07 03:29:26;;;;;;;1.33;1.33;;;4.50;99.90;4.00;100752.00;;;;5016528;28;20637;-75
2021/12/07 03:31:55;;;;;;;1.07;1.07;;;4.50;99.90;4.20;100712.00;;;;4998698;28;20224;-74
2021/12/07 03:34:21;;;;;;;1.00;1.00;;;4.50;99.90;3.80;100737.00;;;;5015553;28;20171;-75
2021/12/07 03:36:49;;;;;;;0.90;0.90;;;4.50;99.90;4.00;100741.00;;;;5014753;28;20218;-74
2021/12/07 03:39:18;;;;;;;0.70;0.70;;;4.50;99.90;4.20;100705.00;;;;5015224;28;20185;-75
2021/12/07 03:41:51;;;;;;;1.10;1.10;;;4.50;99.90;4.20;100743.00;;;;5015074;28;20183;-75
2021/12/07 03:44:20;;;;;;;3.03;1.30;;;4.50;99.90;4.00;100739.00;;;;5014856;28;20163;-75
2021/12/07 03:46:49;;;;;;;1.43;1.43;;;4.50;99.90;3.80;100713.00;;;;5014327;28;20175;-75
2021/12/07 03:49:20;;;;;;;1.10;1.10;;;4.40;99.90;4.00;100719.00;;;;5014859;28;20274;-75
2021/12/07 03:51:49;;;;;;;14.83;1.70;;;4.40;99.90;4.20;100709.00;;;;4998722;28;20200;-75
2021/12/07 03:54:15;;;;;;;1.10;1.00;;;4.50;99.90;3.80;100739.00;;;;5014953;28;20183;-74
2021/12/07 03:56:46;;;;;;;0.93;0.93;;;4.30;99.90;3.70;100753.00;;;;5015240;28;20744;-74
2021/12/07 03:59:18;;;;;;;2.03;1.90;;;4.30;99.90;4.00;100599.00;;;;5016226;28;20164;-75
2021/12/07 04:01:47;;;;;;;0.80;0.80;;;4.40;99.90;3.80;100706.00;;;;5013879;28;20179;-75
2021/12/07 04:04:17;;;;;;;3.43;2.00;;;4.30;99.90;3.70;100754.00;;;;5014487;28;20192;-75
2021/12/07 04:06:46;;;;;;;1.07;1.07;;;4.30;99.90;3.80;100711.00;;;;4998298;28;20175;-75
2021/12/07 04:09:14;;;;;;;2.60;1.73;;;4.30;99.90;3.80;100773.00;;;;5013147;28;20258;-76
2021/12/07 04:11:46;;;;;;;0.90;0.90;;;4.30;99.90;3.80;100775.00;;;;5014608;28;20204;-76
2021/12/07 04:14:18;;;;;;;2.00;1.90;;;4.30;99.90;3.40;100772.00;;;;5014441;28;20243;-76
2021/12/07 04:16:49;;;;;;;0.90;0.90;;;4.30;99.90;4.00;100766.00;;;;5014618;28;20263;-76
2021/12/07 04:19:18;;;;;;;0.70;0.70;;;4.30;99.90;3.80;100771.00;;;;4998448;28;20183;-76
2021/12/07 04:21:44;;;;;;;4.63;2.80;;;4.30;99.90;3.90;100784.00;;;;5014556;28;20229;-76
2021/12/07 04:24:16;;;;;;;0.70;0.70;;;4.40;99.90;4.00;100740.00;;;;5014042;28;20173;-76
2021/12/07 04:26:45;;;;;;;1.20;1.20;;;4.40;99.90;3.80;100779.00;;;;5014526;28;20178;-77
2021/12/07 04:29:19;;;;;;;0.70;0.70;;;4.30;99.90;3.80;100727.00;;;;5014503;28;20187;-76
2021/12/07 04:31:47;;;;;;;0.87;0.87;;;4.30;99.90;3.60;100727.00;;;;4997408;28;20216;-77
2021/12/07 04:34:13;;;;;;;1.80;1.30;;;4.20;99.90;3.60;100764.00;;;;5013722;28;20179;-76
2021/12/07 04:36:42;;;;;;;0.70;0.70;;;4.20;99.90;3.70;100781.00;;;;5013891;28;20543;-77
2021/12/07 04:39:09;;;;;;;0.90;0.90;;;4.10;99.90;3.90;100779.00;;;;5014265;28;20168;-77
2021/12/07 04:41:38;;;;;;;6.33;2.13;;;4.20;99.90;4.00;100768.00;;;;5013398;28;20179;-75
2021/12/07 04:44:07;;;;;;;6.77;2.50;;;4.20;99.90;3.90;100769.00;;;;5014349;28;20164;-74
2021/12/07 04:46:47;;;;;;;0.67;0.67;;;4.10;99.90;4.30;100748.00;;;;5013711;28;20650;-77
2021/12/07 05:00:24;;;;;;;0.90;0.90;;;4.00;99.90;3.50;100758.00;;;;5013501;28;20194;-75
2021/12/07 05:03:01;;;;;;;1.83;1.73;;;3.90;99.90;3.80;100774.00;;;;4997495;28;20183;-76
2021/12/07 05:05:34;;;;;;;1.50;1.40;;;4.00;99.90;3.60;100782.00;;;;5012579;28;20176;-76
2021/12/07 05:08:09;;;;;;;0.70;0.70;;;4.00;99.90;3.60;100782.00;;;;5013515;28;20163;-75
2021/12/07 05:11:11;;;;;;;0.90;0.90;;;3.90;99.90;3.20;100778.00;;;;5013434;28;20167;-75
2021/12/07 05:16:30;;;;;;;0.73;0.73;;;3.90;99.90;3.30;100745.00;;;;5013462;28;20241;-76
2021/12/07 05:24:19;;;;;;;0.70;0.70;;;3.80;99.90;3.40;100778.00;;;;5012927;28;20222;-76
2021/12/07 05:37:57;;;;;;;0.90;0.90;;;4.10;99.90;4.00;100825.00;;;;5012749;28;20214;-77
2021/12/07 05:40:35;;;;;;;0.90;0.90;;;4.00;99.90;3.50;100759.00;;;;4997729;28;20194;-77
2021/12/07 05:43:04;;;;;;;1.00;1.00;;;3.90;99.90;3.30;100820.00;;;;5012867;28;20175;-77
2021/12/07 05:45:34;;;;;;;0.90;0.90;;;3.80;99.90;3.50;100822.00;;;;5012540;28;20196;-77
2021/12/07 05:48:07;;;;;;;0.90;0.90;;;3.80;99.90;3.60;100829.00;;;;5012829;28;20535;-77
2021/12/07 05:50:40;;;;;;;0.90;0.90;;;3.80;99.90;3.90;100828.00;;;;5012841;28;20251;-74
2021/12/07 05:53:09;;;;;;;0.93;0.93;;;3.90;99.90;3.50;100820.00;;;;5012483;28;20198;-74
2021/12/07 05:55:37;;;;;;;0.80;0.80;;;3.90;99.90;3.80;100786.00;;;;4995795;28;20218;-76
2021/12/07 05:58:08;;;;;;;0.90;0.90;;;3.90;99.90;3.60;100827.00;;;;5012360;28;20176;-76
2021/12/07 06:00:43;;;;;;;1.00;1.00;;;3.80;99.90;4.10;100826.00;;;;5012888;28;20250;-76
2021/12/07 06:03:14;;;;;;;1.20;1.20;;;3.90;99.90;3.90;100825.00;;;;5012242;28;20180;-76
2021/12/07 06:05:42;;;;;;;1.00;1.00;;;4.00;99.90;3.80;100823.00;;;;4995709;28;20175;-76
2021/12/07 06:08:08;;;;;;;1.10;1.10;;;3.90;99.90;3.60;100801.00;;;;4996236;28;20589;-76
2021/12/07 06:10:35;;;;;;;1.10;1.10;;;3.90;99.90;3.70;100818.00;;;;5011434;28;20183;-76
2021/12/07 06:13:04;;;;;;;1.20;1.20;;;3.80;99.90;3.30;100801.00;;;;4994925;28;20264;-76
2021/12/07 06:15:51;;;;;;;1.10;1.10;;;3.70;99.90;3.70;100818.00;;;;5012264;28;20208;-76
2021/12/07 06:18:20;;;;;;;1.40;1.40;;;3.80;99.90;3.90;100807.00;;;;5011926;28;20179;-76
2021/12/07 06:20:52;;;;;;;1.20;1.20;;;3.90;99.90;3.50;100808.00;;;;5012528;28;20241;-75
2021/12/07 06:23:23;;;;;;;1.00;1.00;;;3.70;99.90;3.80;100803.00;;;;5011604;28;20187;-75
2021/12/07 06:25:50;;;;;;;1.10;1.10;;;3.80;99.90;3.50;100814.00;;;;5012395;28;20165;-75
2021/12/07 06:28:17;;;;;;;1.13;1.13;;;3.80;99.90;3.70;100820.00;;;;4995966;28;20548;-74
2021/12/07 06:30:48;;;;;;;1.00;1.00;;;3.80;99.90;3.80;100820.00;;;;5012083;28;20217;-75
2021/12/07 06:33:20;;;;;;;1.10;1.10;;;3.80;99.90;3.80;100820.00;;;;4994787;28;20270;-75
2021/12/07 06:35:49;;;;;;;1.00;1.00;;;3.80;99.90;4.00;100805.00;;;;5012203;28;20221;-74
2021/12/07 06:38:18;;;;;;;1.10;1.10;;;3.90;99.90;3.30;100797.00;;;;5013599;28;20534;-74
2021/12/07 06:40:49;;;;;;;1.37;1.37;;;3.70;99.90;3.20;100797.00;;;;5011452;28;20636;-75
2021/12/07 06:43:15;;;;;;;1.00;1.00;;;3.50;99.90;3.10;100786.00;;;;5011823;28;20637;-75
2021/12/07 06:45:45;;;;;;;1.20;1.20;;;3.40;99.90;2.90;100800.00;;;;5012164;28;20538;-75
2021/12/07 06:48:16;;;;;;;2.30;1.43;;;3.30;99.90;2.80;100797.00;;;;4995811;28;20185;-74
2021/12/07 06:50:43;;;;;;;0.90;0.90;;;3.20;99.90;3.00;100809.00;;;;4996118;28;20183;-75
2021/12/07 06:53:18;;;;;;;0.90;0.90;;;3.20;99.90;3.20;100808.00;;;;5011770;28;20210;-75
2021/12/07 06:55:44;;;;;;;1.20;1.20;;;3.30;99.90;2.90;100799.00;;;;5016081;28;20159;-75
2021/12/07 06:58:13;;;;;;;0.90;0.90;;;3.20;99.90;2.80;100809.00;;;;5015373;28;20182;-75
2021/12/07 07:00:41;;;;;;;0.80;0.80;;;3.20;99.90;2.80;100800.00;;;;5016026;28;20179;-75
2021/12/07 07:03:09;;;;;;;0.90;0.90;;;3.20;99.90;2.80;100812.00;;;;4999565;28;20183;-75
2021/12/07 07:05:40;;;;;;;1.10;1.10;;;3.20;99.90;3.00;100823.00;;;;5016103;28;20187;-75
2021/12/07 07:08:07;;;;;;;0.90;0.90;;;3.20;99.90;3.30;100828.00;;;;4999310;28;20175;-75
2021/12/07 07:10:37;;;;;;;1.00;1.00;;;3.30;99.90;2.80;100806.00;;;;5015353;28;20179;-75
2021/12/07 07:13:07;;;;;;;0.93;0.93;;;3.20;99.90;3.10;100819.00;;;;5015240;28;20195;-75
2021/12/07 07:15:36;;;;;;;1.10;1.10;;;3.30;99.90;2.70;100809.00;;;;4999747;28;20601;-75
2021/12/07 07:18:04;;;;;;;5.03;4.80;;;3.20;99.90;2.70;100828.00;;;;5015987;28;20179;-75
2021/12/07 07:20:33;;;;;;;1.37;1.30;;;3.10;99.90;2.90;100823.00;;;;5016268;28;20167;-75
2021/12/07 07:23:02;;;;;;;1.53;1.43;;;3.10;99.90;3.00;100769.00;;;;5015045;28;20226;-77
2021/12/07 07:25:38;;;;;;;5.20;4.40;;;3.10;99.90;2.90;100812.00;;;;5015457;28;20636;-76
2021/12/07 07:28:04;;;;;;;1.40;1.30;;;3.10;99.90;2.80;100809.00;;;;5015528;28;20186;-76
2021/12/07 07:30:33;;;;;;;0.90;0.90;;;3.10;99.90;3.10;100771.00;;;;5015586;28;20183;-76
2021/12/07 07:33:02;;;;;;;1.00;1.00;;;3.20;99.90;2.70;100805.00;;;;4998087;28;20207;-76
2021/12/07 07:35:31;;;;;;;0.90;0.90;;;3.10;99.90;2.90;100813.00;;;;5014184;28;20233;-75
2021/12/07 07:38:00;;;;;;;1.20;1.20;;;3.10;99.90;2.70;100773.00;;;;5048364;28;20168;-75
2021/12/07 07:40:27;;;;;;;1.43;1.43;;;3.10;99.90;2.60;100805.00;;;;5047486;28;20523;-76
2021/12/07 07:42:58;;;;;;;1.10;1.10;;;3.00;99.90;2.70;100813.00;;;;5048027;28;20183;-76
2021/12/07 07:45:26;;;;;;;1.13;1.13;;;3.00;99.90;2.70;100811.00;;;;5047291;28;20187;-76
2021/12/07 07:47:52;;;;;;;1.30;1.30;;;3.00;99.90;2.30;100815.00;;;;5047412;28;20184;-75
2021/12/07 07:50:26;;;;;;;0.90;0.90;;;3.00;99.90;2.50;100783.00;;;;5014042;28;20698;-75
2021/12/07 07:52:53;;;;;;;3.10;2.90;;;2.90;99.90;2.60;100828.00;;;;5014973;28;20230;-74
2021/12/07 07:55:42;;;;;;;0.97;0.97;;;3.00;99.90;2.60;100828.00;;;;5047227;28;20171;-74
2021/12/07 07:58:14;;;;;;;1.63;1.63;;;3.00;99.90;2.60;100828.00;;;;5031172;28;20195;-74
2021/12/07 08:00:45;;;;;;;1.00;1.00;;;2.90;99.90;2.80;100826.00;;;;5030913;28;20190;-74
2021/12/07 08:03:17;;;;;;;1.00;1.00;;;3.00;99.90;2.50;100821.00;;;;4992923;28;20233;-73
2021/12/07 08:05:43;;;;;;;1.00;1.00;;;3.00;99.90;2.60;100834.00;;;;4994904;28;20176;-73
2021/12/07 08:08:12;;;;;;;1.13;1.13;;;3.00;99.90;2.50;100837.00;;;;4978698;28;20603;-73
2021/12/07 08:10:38;;;;;;;0.90;0.90;;;3.00;99.90;2.40;100790.00;;;;4978909;28;20629;-73
2021/12/07 08:13:09;;;;;;;1.40;1.40;;;2.90;99.90;2.50;100816.00;;;;5013737;28;20294;-73
2021/12/07 08:15:42;;;;;;;1.07;1.07;;;3.00;99.90;2.60;100816.00;;;;5015001;28;20238;-73
2021/12/07 08:18:13;;;;;;;1.27;1.27;;;3.00;99.90;2.50;100807.00;;;;5014905;28;20187;-73
2021/12/07 08:20:41;;;;;;;1.10;1.10;;;3.00;99.90;2.40;100803.00;;;;5014664;28;20171;-74
2021/12/07 08:23:11;;;;;;;3.63;2.13;;;3.00;99.90;2.40;100797.00;;;;5014198;28;20167;-74
2021/12/07 08:25:44;;;;;;;1.20;1.20;;;3.00;99.90;2.50;100797.00;;;;4998166;28;20215;-75
2021/12/07 08:28:19;;;;;;;1.10;1.10;;;3.00;99.90;2.40;100781.00;;;;4998186;28;20183;-75
2021/12/07 08:30:47;;;;;;;1.13;1.13;;;3.00;99.90;2.50;100798.00;;;;4998457;28;20182;-74
2021/12/07 08:33:13;;;;;;;0.80;0.80;;;3.00;99.90;2.50;100792.00;;;;5013998;28;20290;-74
2021/12/07 08:35:39;;;;;;;1.73;1.63;;;3.00;99.90;2.80;100790.00;;;;4997589;28;20274;-74
2021/12/07 08:38:11;;;;;;;1.30;1.30;;;3.10;99.90;2.80;100803.00;;;;4997733;28;20525;-74
2021/12/07 08:40:42;;;;;;;1.40;1.40;;;3.10;99.90;2.60;100790.00;;;;5015325;28;20195;-74
2021/12/07 08:43:12;;;;;;;1.07;1.07;;;3.10;99.90;2.50;100790.00;;;;5013737;28;20728;-74
2021/12/07 08:45:40;;;;;;;0.90;0.90;;;3.10;99.90;2.40;100789.00;;;;5014339;28;20183;-74
2021/12/07 08:48:10;;;;;;;1.00;1.00;;;3.00;99.90;2.20;100787.00;;;;4997172;28;20182;-74
2021/12/07 08:50:41;;;;;;;3.03;2.83;;;3.00;99.90;2.60;100790.00;;;;5013577;28;20192;-75
2021/12/07 08:53:11;;;;;;;1.90;0.93;;;3.10;99.90;2.70;100798.00;;;;5013909;28;20207;-76
2021/12/07 09:01:23;;;;;;;1.13;1.13;;;3.10;99.90;2.60;100785.00;;;;5013326;28;20182;-75
2021/12/07 09:03:58;;;;;;;1.07;1.07;;;3.10;99.90;2.80;100782.00;;;;5013385;28;20551;-75
2021/12/07 09:06:30;;;;;;;6.40;2.43;;;3.20;99.90;2.80;100779.00;;;;5013117;28;20189;-75
2021/12/07 09:08:59;;;;;;;3.47;3.27;;;3.20;99.90;2.70;100791.00;;;;4995812;28;20184;-75
2021/12/07 09:11:26;;;;;;;1.43;1.17;;;3.20;99.90;2.80;100782.00;;;;4996508;28;20211;-75
2021/12/07 09:13:55;;;;;;;0.90;0.90;;;3.20;99.90;2.70;100772.00;;;;5012779;28;20191;-75
2021/12/07 09:16:22;;;;;;;1.23;1.10;;;3.30;99.90;3.00;100766.00;;;;5012300;28;20167;-69
2021/12/07 09:18:49;;;;;;;1.10;1.10;;;3.40;99.90;3.10;100777.00;;;;5011790;28;20179;-70
2021/12/07 09:21:17;;;;;;;3.07;1.50;;;3.50;99.90;3.10;100759.00;;;;5012258;28;20543;-70
2021/12/07 09:23:43;;;;;;;0.90;0.90;;;3.60;99.90;3.20;100764.00;;;;5012692;28;20707;-70
2021/12/07 09:26:10;;;;;;;1.23;1.23;;;3.70;99.90;3.30;100775.00;;;;5012227;28;20203;-70
2021/12/07 09:28:41;;;;;;;1.43;1.40;;;3.70;99.90;3.80;100764.00;;;;5013430;28;20184;-70
2021/12/07 09:31:09;;;;;;;1.47;1.47;;;3.90;99.90;3.50;100759.00;;;;5012925;28;20262;-70
2021/12/07 09:33:35;;;;;;;1.77;1.67;;;4.00;99.90;3.90;100760.00;;;;5011131;28;20215;-70
2021/12/07 09:36:05;;;;;;;1.30;1.20;;;4.20;99.90;3.90;100709.00;;;;4995507;28;20184;-70
2021/12/07 09:38:31;;;;;;;1.30;1.30;;;4.30;99.90;3.80;100755.00;;;;5013311;28;20172;-70
2021/12/07 09:40:57;;;;;;;1.20;1.20;;;4.30;99.90;3.70;100677.00;;;;5012557;28;20527;-69
2021/12/07 09:43:23;;;;;;;0.80;0.80;;;4.20;99.90;3.90;100743.00;;;;5012865;28;20196;-69
2021/12/07 09:45:49;;;;;;;1.43;1.33;;;4.30;99.90;4.20;100765.00;;;;5012111;28;20247;-70
2021/12/07 09:48:16;;;;;;;3.90;3.43;;;4.50;99.90;4.30;100761.00;;;;5012704;28;20169;-69
2021/12/07 09:50:47;;;;;;;1.70;1.60;;;4.60;99.90;4.30;100769.00;;;;5012855;28;20186;-69
2021/12/07 09:53:17;;;;;;;1.30;1.30;;;4.80;99.90;4.20;100716.00;;;;5012546;28;20583;-69
2021/12/07 09:55:48;;;;;;;0.93;0.93;;;4.70;99.90;4.50;100756.00;;;;4996208;28;20194;-69
2021/12/07 09:58:15;;;;;;;0.97;0.97;;;4.90;99.90;4.60;100741.00;;;;5013861;28;20208;-68
2021/12/07 10:00:45;;;;;;;0.90;0.90;;;4.90;99.90;4.40;100744.00;;;;5012909;28;20613;-69
2021/12/07 10:03:12;;;;;;;1.10;1.10;;;4.80;99.90;4.20;100742.00;;;;5028558;28;20187;-69
2021/12/07 10:05:41;;;;;;;1.43;1.43;;;4.80;99.90;4.50;100740.00;;;;5011884;28;20284;-69
2021/12/07 10:08:09;;;;;;;1.53;1.53;;;4.90;99.90;4.70;100747.00;;;;4996278;28;20203;-70
2021/12/07 10:10:41;;;;;;;0.90;0.90;;;5.10;99.90;4.80;100730.00;;;;5011711;28;20183;-70
2021/12/07 10:13:11;;;;;;;2.33;1.63;;;5.10;99.90;5.20;100713.00;;;;5012228;28;20238;-70
2021/12/07 10:15:39;;;;;;;1.37;1.37;;;5.40;99.90;5.10;100707.00;;;;5011399;28;20702;-70
2021/12/07 10:18:05;;;;;;;1.20;1.20;;;5.50;99.90;5.10;100682.00;;;;5011028;28;20587;-71
2021/12/07 10:33:35;;;;;;;1.00;1.00;;;5.70;99.90;5.10;100680.00;;;;5050767;28;20604;-71
2021/12/07 10:36:11;;;;;;;1.30;1.30;;;5.70;99.90;5.20;100676.00;;;;5049492;28;20182;-71
2021/12/07 10:38:38;;;;;;;1.00;1.00;;;5.70;99.90;5.40;100659.00;;;;5049181;28;20171;-71
2021/12/07 10:41:11;;;;;;;1.13;1.13;;;5.80;99.90;5.50;100648.00;;;;5038533;28;20225;-71
2021/12/07 10:43:54;;;;;;;1.03;1.03;;;5.80;99.90;5.40;100650.00;;;;5025635;28;20550;-72
2021/12/07 10:46:34;;;;;;;1.30;1.20;;;5.90;99.90;5.30;100615.00;;;;5038841;28;20204;-79
2021/12/07 10:49:58;;;;;;;3.30;1.03;;;5.80;99.90;5.70;100651.00;;;;5045658;28;20187;-79
2021/12/07 10:52:32;;;;;;;1.00;1.00;;;6.00;99.90;5.90;100650.00;;;;5045398;28;20245;-81
2021/12/07 10:55:17;;;;;;;4.53;1.57;;;6.10;99.90;5.30;100638.00;;;;5064411;28;20194;-83
2021/12/07 10:57:57;;;;;;;1.57;1.47;;;5.90;99.90;5.30;100641.00;;;;5033995;28;20190;-73
2021/12/07 11:00:40;;;;;;;1.00;1.00;;;5.80;99.90;5.40;100632.00;;;;5055216;28;20187;-73
2021/12/07 11:03:11;;;;;;;0.90;0.90;;;5.70;99.90;5.30;100637.00;;;;5040453;28;20206;-73
2021/12/07 11:05:46;;;;;;;1.63;1.63;;;5.70;99.90;5.70;100633.00;;;;5040372;28;20198;-73
2021/12/07 11:08:14;;;;;;;1.00;1.00;;;5.80;99.90;5.50;100626.00;;;;5039646;28;20570;-73
2021/12/07 11:10:47;;;;;;;1.00;1.00;;;5.80;99.90;5.20;100638.00;;;;5089657;28;20191;-73
2021/12/07 11:13:35;;;;;;;1.70;1.60;;;5.60;99.90;5.00;100595.00;;;;5056847;28;20188;-73
2021/12/07 11:16:13;;;;;;;1.53;1.43;;;5.60;99.90;5.40;100608.00;;;;5041482;28;20189;-73
2021/12/07 11:18:45;;;;;;;1.00;1.00;;;5.60;99.90;5.30;100612.00;;;;5043776;28;20828;-73
2021/12/07 11:21:19;;;;;;;0.97;0.97;;;5.70;99.90;5.60;100595.00;;;;5039846;28;20717;-73
2021/12/07 11:23:59;;;;;;;1.50;1.40;;;5.80;99.90;5.80;100579.00;;;;5055530;28;20190;-73
2021/12/07 11:31:59;;;;;;;1.37;1.37;;;6.20;99.90;6.30;100581.00;;;;5055397;28;20726;-73
2021/12/07 11:34:40;;;;;;;1.90;1.90;;;6.30;99.90;6.30;100568.00;;;;5056208;28;20189;-74
2021/12/07 11:37:14;;;;;;;6.37;1.93;;;6.50;99.90;6.30;100524.00;;;;5054372;28;20190;-74
2021/12/07 11:39:53;;;;;;;1.27;1.17;;;6.60;99.90;6.60;100540.00;;;;5041112;28;20606;-74
2021/12/07 11:42:36;;;;;;;1.80;1.53;;;6.70;99.90;6.30;100525.00;;;;5056809;28;20250;-73
2021/12/07 11:45:17;;;;;;;1.10;1.10;;;6.60;99.90;6.20;100510.00;;;;5042844;28;20193;-74
2021/12/07 11:47:59;;;;;;;1.50;1.20;;;6.50;99.90;5.90;100506.00;;;;5041665;28;20602;-74
2021/12/07 11:50:33;;;;;;;2.03;1.40;;;6.40;99.90;6.10;100497.00;;;;5043125;28;20684;-74
2021/12/07 11:53:16;;;;;;;0.93;0.93;;;6.30;99.90;5.40;100504.00;;;;5046194;28;20214;-73
2021/12/07 11:55:47;;;;;;;2.63;1.43;;;6.20;99.90;5.60;100480.00;;;;5034914;28;20195;-74
2021/12/07 11:58:16;;;;;;;4.80;3.17;;;6.10;99.90;5.70;100489.00;;;;5033461;28;20169;-74
2021/12/07 12:00:49;;;;;;;0.83;0.83;;;6.00;99.90;5.80;100476.00;;;;5033909;28;20636;-74
2021/12/07 12:03:18;;;;;;;0.80;0.80;;;6.00;99.90;5.70;100447.00;;;;5017751;28;20209;-73
2021/12/07 12:05:48;;;;;;;0.80;0.80;;;6.00;99.90;5.40;100421.00;;;;5035787;28;20657;-73
2021/12/07 12:08:18;;;;;;;1.17;1.17;;;5.90;99.90;5.70;100444.00;;;;5034487;28;20276;-74
2021/12/07 12:11:08;;;;;;;1.23;1.23;;;6.00;99.90;5.50;100450.00;;;;5035036;28;20163;-72
2021/12/07 12:13:50;;;;;;;2.83;2.70;;;6.00;99.90;5.90;100453.00;;;;5033507;28;20209;-73
2021/12/07 12:16:30;;;;;;;1.03;1.03;;;6.10;99.90;6.20;100391.00;;;;5033539;28;20171;-74
2021/12/07 12:19:23;;;;;;;5.20;1.43;;;6.20;99.90;6.20;100420.00;;;;5034342;28;20269;-73
2021/12/07 12:22:05;;;;;;;1.20;1.20;;;6.30;99.90;5.90;100421.00;;;;5033994;28;20200;-74
2021/12/07 12:24:55;;;;;;;4.03;3.70;;;6.30;99.90;5.90;100408.00;;;;5033058;28;20179;-73
2021/12/07 12:27:33;;;;;;;2.03;1.93;;;6.30;99.90;5.90;100394.00;;;;5017556;28;20187;-73
2021/12/07 12:30:27;;;;;;;6.73;1.50;;;6.20;99.90;5.90;100395.00;;;;5033266;28;20268;-74
2021/12/07 12:33:03;;;;;;;0.73;0.73;;;6.20;99.90;6.00;100344.00;;;;5034540;28;20239;-74
2021/12/07 12:35:52;;;;;;;1.30;1.30;;;6.20;99.90;6.30;100374.00;;;;5033488;28;20209;-74
2021/12/07 12:38:31;;;;;;;1.53;1.43;;;6.40;99.90;6.10;100363.00;;;;5034169;28;20192;-74
2021/12/07 12:41:06;;;;;;;1.23;1.23;;;6.40;99.90;6.30;100351.00;;;;5017110;28;20223;-74
2021/12/07 12:43:52;;;;;;;1.07;1.07;;;6.50;99.90;6.00;100357.00;;;;5017303;28;20182;-73
2021/12/07 12:46:27;;;;;;;1.40;1.30;;;6.50;99.90;6.60;100361.00;;;;5034042;28;20188;-74
2021/12/07 12:49:01;;;;;;;1.30;1.30;;;6.60;99.90;6.40;100311.00;;;;5032068;28;20189;-74
2021/12/07 12:51:46;;;;;;;1.27;1.00;;;6.60;99.90;6.30;100344.00;;;;5034722;28;20269;-74
2021/12/07 12:54:18;;;;;;;1.33;1.23;;;6.50;99.90;6.10;100326.00;;;;5025644;28;20246;-74
2021/12/07 12:56:48;;;;;;;0.77;0.77;;;6.40;99.90;6.20;100320.00;;;;5041955;28;20185;-74
2021/12/07 12:59:21;;;;;;;0.77;0.77;;;6.50;99.90;6.30;100335.00;;;;5074835;28;20195;-74
2021/12/07 13:01:47;;;;;;;1.57;1.47;;;6.60;99.90;6.40;100318.00;;;;5040152;28;20583;-74
2021/12/07 13:04:17;;;;;;;0.90;0.90;;;6.70;99.90;6.50;100319.00;;;;5024232;28;20201;-74
2021/12/07 13:07:25;;;;;;;1.37;1.20;;;6.70;99.90;6.30;100315.00;;;;5041577;28;20191;-74
2021/12/07 13:10:02;;;;;;;1.80;1.00;;;6.60;99.90;6.10;100285.00;;;;5040391;28;20217;-74
2021/12/07 13:12:38;;;;;;;9.03;2.40;;;6.60;99.90;6.10;100288.00;;;;5039179;28;20213;-74
2021/12/07 13:15:15;;;;;;;1.47;1.37;;;6.60;99.90;6.30;100277.00;;;;5022877;28;20189;-76
2021/12/07 13:17:45;;;;;;;3.77;1.37;;;6.60;99.90;6.20;100278.00;;;;5024426;28;20196;-76